Time;durP1;ratioP1;P1;durP2;ratioP2;P2;SDS_P1;SDS_P2;PMS_P1;PMS_P2;Temp;Humidity;BMP_temperature;BMP_pressure;BME280_temperature;BME280_humidity;BME280_pressure;Samples;Min_cycle;Max_cycle;Signal;HPM_P1;HPM_P2
2023/12/02 00:02:35;;;;;;;85.90;39.80;;;;;;;-1.58;87.44;99352.64;129361;1265;114743;-61
2023/12/02 00:05:37;;;;;;;80.80;36.40;;;;;;;-1.56;87.42;99350.50;129308;1265;114737;-63
2023/12/02 00:08:39;;;;;;;82.50;37.10;;;;;;;-1.59;87.13;99348.30;129226;1262;114731;-62
2023/12/02 00:11:50;;;;;;;77.70;35.00;;;;;;;-1.65;86.91;99355.55;129352;1277;114771;-62
2023/12/02 00:14:52;;;;;;;69.40;34.50;;;;;;;-1.68;87.13;99356.11;129152;1270;114810;-62
2023/12/02 00:17:54;;;;;;;71.50;33.50;;;;;;;-1.69;87.02;99358.94;129295;1263;114924;-61
2023/12/02 00:20:56;;;;;;;69.00;29.30;;;;;;;-1.74;86.93;99351.66;129817;1262;114788;-62
2023/12/02 00:23:59;;;;;;;68.40;30.40;;;;;;;-1.80;87.34;99351.05;128923;1265;115279;-62
2023/12/02 00:27:01;;;;;;;52.10;25.90;;;;;;;-1.85;87.16;99355.50;129433;1265;114860;-62
2023/12/02 00:30:03;;;;;;;56.40;25.40;;;;;;;-1.91;87.45;99356.80;129301;1283;114854;-62
2023/12/02 00:33:05;;;;;;;57.70;26.00;;;;;;;-1.93;87.52;99359.82;129401;1262;114707;-62
2023/12/02 00:36:08;;;;;;;53.60;25.30;;;;;;;-1.94;87.39;99362.28;129249;1264;114780;-61
2023/12/02 00:39:10;;;;;;;55.60;27.80;;;;;;;-1.93;87.57;99360.15;129393;1265;114732;-61
2023/12/02 00:42:12;;;;;;;64.50;28.00;;;;;;;-1.93;87.65;99366.29;129396;1260;115175;-60
2023/12/02 00:45:14;;;;;;;54.20;24.00;;;;;;;-1.92;87.67;99374.84;129312;1283;114857;-59
2023/12/02 00:48:17;;;;;;;73.00;28.10;;;;;;;-1.92;87.70;99376.06;129186;1265;114939;-59
2023/12/02 00:51:19;;;;;;;69.10;30.10;;;;;;;-1.93;87.57;99376.43;129218;1283;114641;-60
2023/12/02 00:54:21;;;;;;;69.30;29.40;;;;;;;-1.90;87.51;99373.23;129195;1274;114726;-60
2023/12/02 00:57:23;;;;;;;66.80;30.60;;;;;;;-1.86;87.78;99380.87;129199;1262;114750;-60
2023/12/02 01:00:25;;;;;;;70.10;31.60;;;;;;;-1.83;87.86;99376.83;129138;1267;115178;-60
2023/12/02 01:03:27;;;;;;;67.10;32.10;;;;;;;-1.79;87.56;99373.27;129202;1278;114817;-60
2023/12/02 01:06:29;;;;;;;69.00;33.80;;;;;;;-1.77;87.66;99372.18;129189;1264;114727;-60
2023/12/02 01:09:31;;;;;;;77.60;34.30;;;;;;;-1.72;88.07;99367.90;129173;1264;114722;-60
2023/12/02 01:12:33;;;;;;;72.70;33.50;;;;;;;-1.71;87.82;99367.89;129231;1284;114726;-60
2023/12/02 01:15:35;;;;;;;75.70;35.30;;;;;;;-1.71;87.52;99362.64;126457;1269;3743600;-60
2023/12/02 01:18:38;;;;;;;78.20;36.60;;;;;;;-1.72;87.83;99362.30;129061;1270;114780;-60
2023/12/02 01:21:40;;;;;;;78.90;37.60;;;;;;;-1.71;87.81;99363.16;129353;1264;114722;-60
2023/12/02 01:24:42;;;;;;;71.30;32.80;;;;;;;-1.70;87.70;99361.59;129340;1276;114802;-60
2023/12/02 01:27:44;;;;;;;73.80;35.00;;;;;;;-1.71;87.45;99366.66;129257;1283;128835;-60
2023/12/02 01:30:46;;;;;;;67.70;33.50;;;;;;;-1.71;87.66;99368.94;129203;1281;115081;-60
2023/12/02 01:33:48;;;;;;;75.40;33.70;;;;;;;-1.72;87.53;99372.27;129281;1264;114799;-60
2023/12/02 01:36:50;;;;;;;81.10;35.60;;;;;;;-1.75;87.39;99371.63;129371;1262;114777;-60
2023/12/02 01:39:52;;;;;;;80.50;37.60;;;;;;;-1.76;88.03;99369.90;129271;1265;114733;-60
2023/12/02 01:42:54;;;;;;;79.60;35.80;;;;;;;-1.78;88.01;99376.05;129470;1265;114806;-60
2023/12/02 01:45:56;;;;;;;72.60;33.80;;;;;;;-1.77;88.04;99374.81;129125;1270;114957;-60
2023/12/02 01:48:59;;;;;;;66.50;33.50;;;;;;;-1.78;87.95;99370.80;129419;1278;114731;-60
2023/12/02 01:52:01;;;;;;;73.00;35.00;;;;;;;-1.78;87.94;99378.85;129143;1281;114822;-60
2023/12/02 01:55:04;;;;;;;68.20;33.70;;;;;;;-1.77;87.51;99385.82;129482;1265;114694;-59
2023/12/02 01:58:06;;;;;;;63.30;29.50;;;;;;;-1.77;87.39;99372.20;129359;1265;114748;-60
2023/12/02 02:01:08;;;;;;;64.20;32.00;;;;;;;-1.79;87.31;99374.14;129335;1265;114821;-60
2023/12/02 02:04:11;;;;;;;68.60;35.50;;;;;;;-1.80;87.73;99372.58;129467;1262;114790;-60
2023/12/02 02:07:13;;;;;;;74.70;35.60;;;;;;;-1.81;88.11;99365.92;129040;1262;114826;-60
2023/12/02 02:10:15;;;;;;;81.80;35.20;;;;;;;-1.81;87.73;99362.77;129428;1262;114805;-59
2023/12/02 02:13:17;;;;;;;69.30;33.50;;;;;;;-1.80;87.60;99362.06;129372;1265;115276;-59
2023/12/02 02:16:20;;;;;;;65.20;33.00;;;;;;;-1.80;88.21;99362.42;129098;1270;115154;-60
2023/12/02 02:19:22;;;;;;;69.70;33.80;;;;;;;-1.81;87.40;99360.15;129425;1265;114794;-60
2023/12/02 02:22:24;;;;;;;71.60;35.40;;;;;;;-1.79;87.79;99358.91;129350;1265;114748;-60
2023/12/02 02:25:26;;;;;;;72.80;34.30;;;;;;;-1.77;88.11;99363.44;128958;1268;114758;-60
2023/12/02 02:28:28;;;;;;;71.30;34.90;;;;;;;-1.79;87.40;99366.27;129271;1264;115287;-60
2023/12/02 02:31:30;;;;;;;75.40;33.90;;;;;;;-1.79;87.85;99366.42;129272;1264;115696;-60
2023/12/02 02:34:32;;;;;;;74.60;34.70;;;;;;;-1.77;87.59;99363.45;129183;1270;128359;-60
2023/12/02 02:37:34;;;;;;;74.20;35.60;;;;;;;-1.76;88.00;99358.69;129200;1274;114662;-60
2023/12/02 02:40:36;;;;;;;71.20;35.70;;;;;;;-1.74;87.84;99358.14;129212;1284;114822;-60
2023/12/02 02:43:38;;;;;;;70.90;36.10;;;;;;;-1.73;88.21;99350.95;129020;1267;114918;-60
2023/12/02 02:46:40;;;;;;;73.10;34.00;;;;;;;-1.71;87.93;99345.66;129148;1262;114752;-61
2023/12/02 02:49:42;;;;;;;68.10;33.40;;;;;;;-1.71;87.75;99346.19;129255;1267;114748;-60
2023/12/02 02:52:46;;;;;;;62.40;33.10;;;;;;;-1.72;88.15;99335.16;129181;1264;114842;-60
2023/12/02 02:55:48;;;;;;;72.60;35.10;;;;;;;-1.72;88.30;99327.82;129123;1269;128471;-60
2023/12/02 02:58:51;;;;;;;70.40;34.90;;;;;;;-1.72;88.25;99331.51;129447;1283;114883;-60
2023/12/02 03:01:53;;;;;;;70.00;35.30;;;;;;;-1.74;87.93;99330.47;129340;1265;114724;-60
2023/12/02 03:04:55;;;;;;;66.00;35.80;;;;;;;-1.73;88.23;99329.40;129447;1283;114743;-60
2023/12/02 03:07:57;;;;;;;79.70;37.20;;;;;;;-1.73;88.07;99322.75;129079;1262;115001;-60
2023/12/02 03:10:59;;;;;;;76.80;38.00;;;;;;;-1.73;88.03;99326.61;129314;1274;114819;-60
2023/12/02 03:14:02;;;;;;;82.00;39.10;;;;;;;-1.72;87.80;99326.94;129367;1265;114806;-60
2023/12/02 03:17:04;;;;;;;91.40;41.90;;;;;;;-1.70;87.92;99329.71;129169;1270;128570;-66
2023/12/02 03:20:07;;;;;;;94.70;46.90;;;;;;;-1.69;88.00;99332.84;129452;1262;114735;-65
2023/12/02 03:23:09;;;;;;;102.10;47.60;;;;;;;-1.69;87.92;99326.56;129390;1265;114768;-64
2023/12/02 03:26:12;;;;;;;134.00;60.40;;;;;;;-1.71;87.88;99320.63;129310;1262;114727;-62
2023/12/02 03:29:14;;;;;;;120.00;57.70;;;;;;;-1.76;88.09;99310.02;129323;1265;115193;-61
2023/12/02 03:32:16;;;;;;;127.20;60.50;;;;;;;-1.76;87.91;99312.48;129165;1284;114847;-64
2023/12/02 03:35:18;;;;;;;130.20;64.80;;;;;;;-1.77;87.88;99315.46;129375;1265;115145;-61
2023/12/02 03:38:20;;;;;;;129.50;64.00;;;;;;;-1.77;88.42;99309.52;129189;1276;128670;-60
2023/12/02 03:41:22;;;;;;;136.60;64.80;;;;;;;-1.78;87.94;99314.61;129137;1265;114828;-62
2023/12/02 03:44:25;;;;;;;147.50;67.80;;;;;;;-1.80;87.98;99302.58;129298;1263;114714;-60
2023/12/02 03:47:27;;;;;;;145.40;65.90;;;;;;;-1.82;88.08;99301.38;129197;1274;114888;-59
2023/12/02 03:50:29;;;;;;;155.10;67.80;;;;;;;-1.85;87.69;99300.36;129121;1269;114817;-62
2023/12/02 03:53:34;;;;;;;139.10;65.10;;;;;;;-1.86;88.16;99305.98;129171;1275;114717;-60
2023/12/02 03:56:38;;;;;;;139.20;65.20;;;;;;;-1.87;87.76;99300.23;129129;1284;129141;-62
2023/12/02 03:59:41;;;;;;;137.10;62.30;;;;;;;-1.89;88.26;99305.31;129058;1267;114801;-60
2023/12/02 04:02:43;;;;;;;132.70;63.70;;;;;;;-1.90;88.19;99320.73;129258;1274;114732;-60
2023/12/02 04:05:45;;;;;;;136.80;65.40;;;;;;;-1.93;88.21;99324.30;129203;1284;114718;-63
2023/12/02 04:08:47;;;;;;;131.60;62.40;;;;;;;-1.94;87.95;99321.67;129229;1264;114794;-63
2023/12/02 04:11:49;;;;;;;125.10;60.80;;;;;;;-1.95;87.96;99318.19;129222;1264;114735;-61
2023/12/02 04:14:51;;;;;;;129.90;62.20;;;;;;;-1.96;87.88;99322.92;129232;1274;115116;-62
2023/12/02 04:17:53;;;;;;;128.10;62.10;;;;;;;-1.95;88.41;99329.39;128994;1284;128399;-60
2023/12/02 04:20:55;;;;;;;125.90;62.50;;;;;;;-1.95;88.22;99327.98;129284;1266;114814;-60
2023/12/02 04:23:57;;;;;;;134.70;62.60;;;;;;;-1.95;87.87;99323.08;129308;1265;114726;-63
2023/12/02 04:27:00;;;;;;;114.40;54.70;;;;;;;-1.94;88.43;99325.87;129353;1263;115323;-61
2023/12/02 04:30:04;;;;;;;114.90;53.90;;;;;;;-1.93;88.39;99333.02;129348;1274;114810;-61
2023/12/02 04:33:06;;;;;;;103.70;50.90;;;;;;;-1.94;88.28;99341.27;129211;1262;114789;-65
2023/12/02 04:36:09;;;;;;;100.40;50.30;;;;;;;-1.96;87.94;99334.48;129109;1276;114781;-61
2023/12/02 04:39:11;;;;;;;107.40;50.90;;;;;;;-1.97;88.37;99326.61;129462;1265;115430;-61
2023/12/02 04:42:13;;;;;;;98.40;48.40;;;;;;;-1.97;87.93;99307.54;129411;1265;114639;-64
2023/12/02 04:45:15;;;;;;;95.40;47.90;;;;;;;-2.00;88.12;99314.41;129170;1262;115263;-61
2023/12/02 04:48:17;;;;;;;108.60;51.20;;;;;;;-1.98;88.11;99312.29;129118;1266;114804;-62
2023/12/02 04:51:19;;;;;;;104.70;50.30;;;;;;;-1.96;88.03;99288.29;129155;1276;114687;-63
2023/12/02 04:54:21;;;;;;;93.30;49.20;;;;;;;-1.97;88.17;99283.91;128987;1266;114812;-62
2023/12/02 04:57:24;;;;;;;104.60;48.30;;;;;;;-1.99;88.26;99283.95;129269;1269;114757;-62
2023/12/02 05:00:27;;;;;;;96.10;48.00;;;;;;;-1.98;88.45;99284.82;129239;1264;115235;-61
2023/12/02 05:03:29;;;;;;;93.80;48.60;;;;;;;-1.98;88.13;99278.86;129359;1266;114760;-62
2023/12/02 05:06:31;;;;;;;98.40;48.30;;;;;;;-1.96;88.43;99273.92;129308;1264;114732;-64
2023/12/02 05:09:36;;;;;;;95.90;49.60;;;;;;;-1.94;87.93;99267.79;128945;1271;114728;-61
2023/12/02 05:12:38;;;;;;;96.80;49.10;;;;;;;-1.95;87.77;99264.83;129213;1267;114780;-61
2023/12/02 05:15:43;;;;;;;103.00;51.20;;;;;;;-1.94;88.30;99271.63;129229;1265;114748;-61
2023/12/02 05:18:45;;;;;;;107.10;52.60;;;;;;;-1.91;88.14;99279.64;129230;1284;115320;-61
2023/12/02 05:21:47;;;;;;;108.60;52.70;;;;;;;-1.89;88.64;99282.56;129246;1274;115235;-61
2023/12/02 05:24:49;;;;;;;109.30;53.00;;;;;;;-1.88;88.54;99281.86;129348;1265;114884;-63
2023/12/02 05:27:51;;;;;;;109.90;53.20;;;;;;;-1.86;88.29;99280.26;129169;1271;114709;-61
2023/12/02 05:30:54;;;;;;;122.70;56.70;;;;;;;-1.84;88.60;99281.10;129423;1268;114816;-60
2023/12/02 05:33:56;;;;;;;123.60;58.80;;;;;;;-1.83;87.96;99270.75;129482;1266;115566;-61
2023/12/02 05:36:58;;;;;;;126.80;64.00;;;;;;;-1.82;87.86;99267.60;129069;1276;128480;-61
2023/12/02 05:40:00;;;;;;;138.20;61.80;;;;;;;-1.81;88.08;99266.01;129389;1271;114698;-61
2023/12/02 05:43:02;;;;;;;134.90;63.80;;;;;;;-1.80;88.17;99264.59;129365;1260;116438;-64
2023/12/02 05:46:04;;;;;;;138.80;67.70;;;;;;;-1.80;88.10;99254.09;129159;1267;115075;-61
2023/12/02 05:49:07;;;;;;;164.90;74.70;;;;;;;-1.80;87.82;99257.59;129496;1274;114786;-60
2023/12/02 05:52:09;;;;;;;143.40;71.00;;;;;;;-1.82;88.19;99255.17;129425;1273;114769;-61
2023/12/02 05:55:10;;;;;;;145.10;70.90;;;;;;;-1.82;88.48;99265.33;129312;1265;114718;-61
2023/12/02 05:58:13;;;;;;;145.90;68.00;;;;;;;-1.81;88.20;99272.14;129091;1275;127272;-61
2023/12/02 06:01:20;;;;;;;141.10;66.90;;;;;;;-1.81;88.46;99274.75;129307;1265;115294;-62
2023/12/02 06:04:22;;;;;;;139.60;66.60;;;;;;;-1.80;88.52;99278.75;129191;1269;115225;-62
2023/12/02 06:07:24;;;;;;;135.20;64.50;;;;;;;-1.80;88.15;99283.84;129242;1274;115194;-61
2023/12/02 06:10:27;;;;;;;135.00;66.10;;;;;;;-1.79;88.52;99291.02;129139;1267;115226;-61
2023/12/02 06:13:29;;;;;;;127.30;62.80;;;;;;;-1.79;88.14;99292.21;129038;1275;114851;-61
2023/12/02 06:16:31;;;;;;;131.70;63.20;;;;;;;-1.77;87.96;99291.84;129256;1274;114788;-64
2023/12/02 06:19:33;;;;;;;139.40;64.60;;;;;;;-1.76;88.16;99286.40;129279;1262;115720;-63
2023/12/02 06:22:35;;;;;;;139.90;65.60;;;;;;;-1.76;88.48;99282.73;129333;1270;115059;-61
2023/12/02 06:25:37;;;;;;;132.10;64.30;;;;;;;-1.74;88.02;99280.26;129388;1274;115379;-61
2023/12/02 06:28:39;;;;;;;127.90;64.90;;;;;;;-1.75;88.16;99285.70;129392;1284;114729;-64
2023/12/02 06:31:41;;;;;;;128.00;67.50;;;;;;;-1.75;88.21;99292.52;129206;1269;114795;-60
2023/12/02 06:34:43;;;;;;;132.00;64.10;;;;;;;-1.74;88.38;99299.84;129295;1264;114749;-61
2023/12/02 06:37:45;;;;;;;126.90;60.40;;;;;;;-1.74;87.65;99303.88;129335;1266;115127;-62
2023/12/02 06:40:47;;;;;;;132.40;61.10;;;;;;;-1.74;87.85;99299.50;129194;1284;129165;-60
2023/12/02 06:43:49;;;;;;;125.70;60.60;;;;;;;-1.73;87.91;99308.42;129190;1284;114722;-60
2023/12/02 06:46:51;;;;;;;108.20;57.20;;;;;;;-1.73;88.04;99307.17;129321;1275;115166;-61
2023/12/02 06:49:54;;;;;;;117.10;58.20;;;;;;;-1.72;88.46;99307.33;128985;1272;114902;-60
2023/12/02 06:52:56;;;;;;;115.40;55.80;;;;;;;-1.70;88.16;99308.89;129339;1278;115388;-61
2023/12/02 06:55:58;;;;;;;118.00;57.00;;;;;;;-1.68;88.39;99307.63;129370;1261;114651;-61
2023/12/02 06:59:00;;;;;;;112.00;56.90;;;;;;;-1.66;88.25;99309.37;129108;1269;115063;-61
2023/12/02 07:02:03;;;;;;;123.20;58.50;;;;;;;-1.63;88.48;99313.34;129383;1276;114789;-60
2023/12/02 07:05:05;;;;;;;111.60;56.80;;;;;;;-1.62;87.88;99314.55;129501;1283;114918;-61
2023/12/02 07:08:08;;;;;;;114.60;55.80;;;;;;;-1.60;88.15;99313.98;129151;1265;115187;-60
2023/12/02 07:11:10;;;;;;;109.30;54.70;;;;;;;-1.57;88.47;99311.48;129407;1276;114796;-60
2023/12/02 07:14:12;;;;;;;121.50;60.30;;;;;;;-1.54;88.12;99313.54;129466;1261;114897;-60
2023/12/02 07:17:14;;;;;;;114.50;56.50;;;;;;;-1.51;88.29;99313.15;129397;1283;114885;-61
2023/12/02 07:20:17;;;;;;;107.50;56.00;;;;;;;-1.49;88.27;99316.98;129319;1261;114768;-61
2023/12/02 07:23:19;;;;;;;100.00;51.40;;;;;;;-1.47;88.31;99323.05;129332;1274;116438;-61
2023/12/02 07:26:21;;;;;;;103.80;50.00;;;;;;;-1.44;88.18;99331.95;129164;1277;114722;-60
2023/12/02 07:29:23;;;;;;;110.80;54.40;;;;;;;-1.42;88.44;99338.56;129390;1266;114737;-60
2023/12/02 07:32:25;;;;;;;103.30;49.80;;;;;;;-1.40;88.09;99341.16;129017;1278;114801;-61
2023/12/02 07:35:27;;;;;;;102.90;50.70;;;;;;;-1.39;88.27;99333.24;129299;1278;115287;-62
2023/12/02 07:38:29;;;;;;;95.30;48.90;;;;;;;-1.37;87.87;99333.76;129330;1266;115233;-61
2023/12/02 07:41:31;;;;;;;99.90;48.70;;;;;;;-1.35;88.28;99341.08;129224;1268;114710;-61
2023/12/02 07:44:33;;;;;;;94.70;47.40;;;;;;;-1.30;88.24;99352.73;129329;1281;114770;-62
2023/12/02 07:47:35;;;;;;;91.50;47.60;;;;;;;-1.26;88.35;99359.33;129380;1264;115362;-61
2023/12/02 07:50:38;;;;;;;94.90;46.00;;;;;;;-1.21;88.20;99364.31;128991;1267;116503;-60
2023/12/02 07:53:41;;;;;;;85.60;43.60;;;;;;;-1.17;87.84;99371.45;129254;1267;114807;-61
2023/12/02 07:56:43;;;;;;;101.40;47.70;;;;;;;-1.16;88.15;99377.55;129300;1264;114734;-60
2023/12/02 07:59:45;;;;;;;94.50;47.10;;;;;;;-1.14;87.97;99378.21;129280;1284;114948;-61
2023/12/02 08:02:47;;;;;;;91.20;44.90;;;;;;;-1.12;87.90;99376.45;129189;1266;114897;-60
2023/12/02 08:05:50;;;;;;;90.00;46.20;;;;;;;-1.11;88.02;99373.63;129267;1274;114739;-60
2023/12/02 08:08:53;;;;;;;97.30;49.30;;;;;;;-1.11;87.58;99378.16;129280;1275;114755;-61
2023/12/02 08:11:56;;;;;;;92.00;50.00;;;;;;;-1.11;87.52;99383.25;129221;1267;114772;-61
2023/12/02 08:15:00;;;;;;;;;;;;;;;-1.10;87.68;99384.98;128983;1267;114819;-61
2023/12/02 08:18:03;;;;;;;123.70;58.40;;;;;;;-1.08;87.69;99385.82;129271;1284;114707;-60
2023/12/02 08:21:05;;;;;;;121.60;60.30;;;;;;;-1.06;87.69;99377.55;129376;1267;114718;-61
2023/12/02 08:24:07;;;;;;;116.10;59.30;;;;;;;-1.00;87.61;99373.09;129231;1268;127901;-60
2023/12/02 08:27:09;;;;;;;128.60;65.10;;;;;;;-0.99;87.63;99361.83;129178;1266;115279;-60
2023/12/02 08:30:12;;;;;;;124.30;64.60;;;;;;;-0.98;87.46;99356.05;129266;1275;114804;-60
2023/12/02 08:33:14;;;;;;;136.40;68.90;;;;;;;-0.97;87.93;99351.98;129024;1270;114761;-60
2023/12/02 08:36:16;;;;;;;148.50;72.30;;;;;;;-0.90;87.88;99359.59;129150;1264;114985;-60
2023/12/02 08:39:18;;;;;;;149.40;71.70;;;;;;;-0.83;87.57;99365.07;129243;1266;114749;-60
2023/12/02 08:42:21;;;;;;;141.20;69.90;;;;;;;-0.78;87.53;99371.64;129105;1267;114939;-60
2023/12/02 08:45:23;;;;;;;135.60;67.90;;;;;;;-0.72;87.37;99374.49;129135;1274;114801;-60
2023/12/02 08:48:25;;;;;;;150.20;77.00;;;;;;;-0.64;87.46;99379.96;129228;1267;114844;-60
2023/12/02 08:51:27;;;;;;;145.40;75.70;;;;;;;-0.53;87.71;99383.27;128904;1282;114788;-60
2023/12/02 08:54:29;;;;;;;139.70;72.00;;;;;;;-0.39;87.58;99387.20;129341;1277;114781;-61
2023/12/02 08:57:32;;;;;;;133.70;70.50;;;;;;;-0.26;87.72;99391.52;129323;1284;114818;-60
2023/12/02 09:00:34;;;;;;;138.50;69.80;;;;;;;-0.15;87.08;99392.34;129385;1266;115164;-60
2023/12/02 09:03:36;;;;;;;135.90;68.70;;;;;;;-0.02;87.28;99384.00;129232;1267;114791;-60
2023/12/02 09:06:39;;;;;;;143.00;73.20;;;;;;;0.09;87.24;99383.59;129282;1267;114870;-60
2023/12/02 09:09:42;;;;;;;133.30;66.10;;;;;;;0.11;86.52;99369.52;129363;1267;114766;-60
2023/12/02 09:12:44;;;;;;;130.90;70.80;;;;;;;0.04;86.13;99361.59;129046;1284;116447;-60
2023/12/02 09:15:47;;;;;;;138.10;74.70;;;;;;;0.04;86.53;99365.64;129364;1267;114668;-61
2023/12/02 09:18:49;;;;;;;143.00;74.70;;;;;;;0.05;86.58;99367.71;129558;1265;114786;-61
2023/12/02 09:21:51;;;;;;;137.70;76.00;;;;;;;0.07;86.74;99372.06;129281;1264;115150;-60
2023/12/02 09:24:53;;;;;;;147.20;75.50;;;;;;;0.09;86.62;99376.23;129345;1275;114648;-60
2023/12/02 09:28:05;;;;;;;146.70;75.50;;;;;;;0.11;86.68;99385.48;129250;1268;114723;-60
2023/12/02 09:31:08;;;;;;;139.10;72.10;;;;;;;0.13;86.39;99401.95;129174;1270;115167;-60
2023/12/02 09:34:32;;;;;;;142.80;74.10;;;;;;;0.13;86.30;99406.52;129312;1276;114780;-63
2023/12/02 09:37:57;;;;;;;147.30;74.30;;;;;;;0.28;86.80;99396.00;129558;1267;114743;-62
2023/12/02 09:41:44;;;;;;;138.10;74.20;;;;;;;0.45;87.20;99387.73;129279;1264;115398;-63
2023/12/02 09:44:50;;;;;;;142.60;76.50;;;;;;;0.64;86.98;99378.65;128778;1292;129137;-63
2023/12/02 09:48:24;;;;;;;139.50;74.50;;;;;;;0.75;86.47;99378.95;128497;1282;115650;-64
2023/12/02 09:51:43;;;;;;;145.40;74.40;;;;;;;0.77;86.51;99368.35;128369;1273;114858;-63
2023/12/02 09:54:53;;;;;;;146.00;75.40;;;;;;;0.72;86.09;99362.48;128838;1270;114910;-66
2023/12/02 09:58:00;;;;;;;143.90;76.90;;;;;;;0.70;85.75;99368.52;128995;1271;115024;-65
2023/12/02 10:01:04;;;;;;;150.50;77.80;;;;;;;0.71;85.96;99378.70;128466;1274;128701;-64
2023/12/02 10:04:09;;;;;;;133.50;71.60;;;;;;;0.76;86.08;99375.23;128747;1292;115386;-65
2023/12/02 10:07:26;;;;;;;144.80;74.50;;;;;;;0.85;85.98;99363.25;128872;1276;115172;-64
2023/12/02 10:10:42;;;;;;;144.70;74.10;;;;;;;0.95;86.08;99351.73;128788;1270;115438;-66
2023/12/02 10:13:54;;;;;;;143.30;75.00;;;;;;;0.95;85.50;99333.98;128791;1273;115205;-67
2023/12/02 10:16:56;;;;;;;130.60;69.80;;;;;;;0.99;85.37;99313.14;129324;1284;128004;-68
2023/12/02 10:20:01;;;;;;;138.10;72.10;;;;;;;1.00;84.97;99307.98;129566;1267;114807;-65
2023/12/02 10:23:27;;;;;;;143.80;73.60;;;;;;;1.04;85.00;99306.85;129485;1263;114850;-63
2023/12/02 10:26:30;;;;;;;;;;;;;;;1.10;85.38;99328.48;129500;1263;114786;-64
2023/12/02 10:29:40;;;;;;;147.20;74.40;;;;;;;1.17;85.30;99335.49;129535;1267;114818;-63
2023/12/02 10:33:01;;;;;;;135.00;71.70;;;;;;;1.25;85.34;99343.73;129416;1267;129651;-64
2023/12/02 10:36:05;;;;;;;143.90;75.70;;;;;;;1.29;85.09;99352.96;129357;1264;115282;-62
2023/12/02 10:39:10;;;;;;;141.20;75.00;;;;;;;1.28;84.59;99355.45;129599;1264;114794;-67
2023/12/02 10:42:27;;;;;;;147.10;77.20;;;;;;;1.27;84.75;99364.79;129535;1272;115043;-64
2023/12/02 10:45:30;;;;;;;156.50;80.40;;;;;;;1.28;85.11;99373.73;129464;1270;114843;-66
2023/12/02 10:48:32;;;;;;;145.20;77.10;;;;;;;1.29;84.76;99387.78;129574;1265;115309;-64
2023/12/02 10:51:39;;;;;;;147.30;77.30;;;;;;;1.25;84.56;99401.23;129548;1264;115044;-65
2023/12/02 10:54:43;;;;;;;153.00;83.50;;;;;;;1.24;84.66;99408.32;129795;1276;114757;-64
2023/12/02 10:57:45;;;;;;;160.10;78.70;;;;;;;1.24;84.90;99416.23;129599;1263;115116;-64
2023/12/02 11:00:52;;;;;;;154.10;77.00;;;;;;;1.25;84.87;99393.33;129677;1269;114793;-66
2023/12/02 11:04:20;;;;;;;155.40;80.90;;;;;;;1.25;85.02;99360.96;129720;1264;127848;-64
2023/12/02 11:07:23;;;;;;;150.60;78.50;;;;;;;1.25;84.81;99360.11;129190;1260;115189;-64
2023/12/02 11:10:31;;;;;;;153.20;79.20;;;;;;;1.25;84.66;99349.73;129434;1264;114786;-64
2023/12/02 11:13:34;;;;;;;140.50;73.90;;;;;;;1.26;84.58;99347.23;129165;1265;114826;-64
2023/12/02 11:17:04;;;;;;;143.40;76.40;;;;;;;1.28;84.43;99346.13;129327;1283;115081;-64
2023/12/02 11:20:12;;;;;;;135.60;70.40;;;;;;;1.26;84.31;99338.08;129009;1283;128487;-65
2023/12/02 11:23:35;;;;;;;133.60;73.00;;;;;;;1.21;83.93;99342.78;129212;1283;115199;-64
2023/12/02 11:27:00;;;;;;;132.70;70.00;;;;;;;1.21;84.30;99343.50;129433;1261;114905;-66
2023/12/02 11:30:28;;;;;;;114.30;59.90;;;;;;;1.28;84.57;99329.23;129643;1275;114793;-66
2023/12/02 11:33:50;;;;;;;128.70;66.90;;;;;;;1.24;83.91;99332.69;129019;1283;114768;-63
2023/12/02 11:37:23;;;;;;;124.90;66.10;;;;;;;1.24;83.80;99338.50;129153;1283;128884;-62
2023/12/02 11:40:31;;;;;;;119.20;63.90;;;;;;;1.22;84.08;99329.58;128979;1284;115258;-63
2023/12/02 11:43:42;;;;;;;115.50;63.60;;;;;;;1.18;84.00;99318.24;128825;1261;114801;-63
2023/12/02 11:47:09;;;;;;;116.60;63.70;;;;;;;1.20;83.92;99315.38;129232;1272;114744;-64
2023/12/02 11:50:35;;;;;;;121.60;63.80;;;;;;;1.23;83.84;99311.45;129747;1264;114774;-66
2023/12/02 11:54:14;;;;;;;119.60;62.90;;;;;;;1.20;83.46;99315.02;129770;1264;128747;-65
2023/12/02 11:57:40;;;;;;;128.60;64.50;;;;;;;1.13;83.34;99318.56;129919;1265;115196;-64
2023/12/02 12:00:50;;;;;;;127.10;65.60;;;;;;;1.13;83.99;99313.29;129760;1260;114729;-63
2023/12/02 12:04:30;;;;;;;128.90;67.70;;;;;;;1.12;83.65;99320.52;129647;1270;114882;-64
2023/12/02 12:07:55;;;;;;;119.80;66.20;;;;;;;1.10;84.11;99328.48;129344;1264;114745;-63
2023/12/02 12:10:58;;;;;;;139.80;71.80;;;;;;;1.10;83.88;99317.23;129609;1269;128423;-63
2023/12/02 12:14:01;;;;;;;123.50;67.60;;;;;;;1.10;83.83;99305.44;129641;1265;114902;-64
2023/12/02 12:17:04;;;;;;;134.50;70.50;;;;;;;1.08;83.60;99306.02;129638;1264;115229;-64
2023/12/02 12:20:21;;;;;;;128.20;71.40;;;;;;;1.07;84.03;99311.86;130032;1261;115196;-64
2023/12/02 12:23:24;;;;;;;131.30;72.30;;;;;;;1.11;83.88;99314.58;129790;1261;114715;-64
2023/12/02 12:26:27;;;;;;;129.40;68.40;;;;;;;1.13;83.94;99317.34;129791;1264;127885;-64
2023/12/02 12:29:29;;;;;;;128.20;66.10;;;;;;;1.12;83.86;99315.77;129682;1280;114682;-64
2023/12/02 12:32:31;;;;;;;131.90;69.80;;;;;;;1.10;83.92;99311.60;129792;1264;114738;-64
2023/12/02 12:35:33;;;;;;;122.40;67.20;;;;;;;1.10;83.68;99316.16;129752;1264;114827;-63
2023/12/02 12:38:36;;;;;;;119.40;65.30;;;;;;;1.07;83.51;99310.81;129252;1265;115179;-62
2023/12/02 12:41:39;;;;;;;125.50;66.90;;;;;;;1.02;83.41;99308.29;129386;1272;115174;-63
2023/12/02 12:44:41;;;;;;;115.70;63.90;;;;;;;1.01;83.49;99305.50;129283;1264;114740;-62
2023/12/02 12:47:43;;;;;;;122.30;63.20;;;;;;;0.99;83.69;99301.00;129419;1261;114716;-63
2023/12/02 12:50:45;;;;;;;115.30;63.20;;;;;;;0.95;83.34;99298.65;129348;1260;115215;-63
2023/12/02 12:53:56;;;;;;;116.50;63.50;;;;;;;0.91;83.64;99295.03;129248;1266;115125;-65
2023/12/02 12:57:24;;;;;;;109.10;58.50;;;;;;;0.89;83.83;99286.84;129851;1264;114715;-62
2023/12/02 13:00:28;;;;;;;110.10;58.40;;;;;;;0.83;83.40;99271.86;129010;1264;114870;-63
2023/12/02 13:03:50;;;;;;;111.80;61.20;;;;;;;0.80;83.67;99280.39;129244;1277;130080;-63
2023/12/02 13:07:06;;;;;;;103.50;56.90;;;;;;;0.78;83.58;99290.13;129765;1264;115372;-62
2023/12/02 13:10:09;;;;;;;107.30;58.30;;;;;;;0.73;83.58;99286.56;129069;1267;114799;-62
2023/12/02 13:13:14;;;;;;;103.40;56.00;;;;;;;0.72;83.50;99277.80;129122;1260;114971;-62
2023/12/02 13:16:16;;;;;;;96.30;53.30;;;;;;;0.73;84.05;99276.70;126966;1262;3432509;-63
2023/12/02 13:19:18;;;;;;;102.80;54.90;;;;;;;0.69;83.37;99273.98;129381;1264;114798;-63
2023/12/02 13:22:20;;;;;;;98.10;53.90;;;;;;;0.67;83.84;99268.59;129535;1265;115442;-63
2023/12/02 13:25:25;;;;;;;104.20;53.10;;;;;;;0.67;83.89;99262.79;129521;1263;114918;-63
2023/12/02 13:28:36;;;;;;;89.30;48.00;;;;;;;0.61;82.88;99266.64;129295;1270;115314;-61
2023/12/02 13:31:40;;;;;;;96.70;49.70;;;;;;;0.52;83.40;99274.07;129240;1261;114790;-62
2023/12/02 13:35:09;;;;;;;91.60;48.60;;;;;;;0.49;83.39;99283.98;129167;1264;116323;-63
2023/12/02 13:38:26;;;;;;;93.60;48.40;;;;;;;0.46;83.33;99291.80;129124;1260;114829;-65
2023/12/02 13:41:37;;;;;;;86.00;48.70;;;;;;;0.42;83.58;99298.02;129391;1262;128643;-62
2023/12/02 13:44:40;;;;;;;94.20;47.30;;;;;;;0.41;83.78;99301.56;129370;1267;115189;-62
2023/12/02 13:48:08;;;;;;;86.20;45.40;;;;;;;0.36;83.58;99307.83;129393;1267;115151;-63
2023/12/02 13:51:28;;;;;;;89.20;46.00;;;;;;;0.31;83.46;99321.48;128690;1273;115602;-63